sensor_id;sensor_type;location;lat;lon;timestamp;P1;durP1;ratioP1;P2;durP2;ratioP2
50393;SDS011;36308;46.312;25.288;2022-11-09T00:02:07;55.00;;;29.83;;
50393;SDS011;36308;46.312;25.288;2022-11-09T00:04:32;56.85;;;30.92;;
50393;SDS011;36308;46.312;25.288;2022-11-09T00:06:58;54.85;;;29.77;;
50393;SDS011;36308;46.312;25.288;2022-11-09T00:09:25;60.35;;;30.02;;
50393;SDS011;36308;46.312;25.288;2022-11-09T00:11:52;58.22;;;31.08;;
50393;SDS011;36308;46.312;25.288;2022-11-09T00:14:18;65.97;;;32.75;;
50393;SDS011;36308;46.312;25.288;2022-11-09T00:16:43;64.20;;;32.25;;
50393;SDS011;36308;46.312;25.288;2022-11-09T00:19:09;64.78;;;32.50;;
50393;SDS011;36308;46.312;25.288;2022-11-09T00:21:34;70.15;;;34.20;;
50393;SDS011;36308;46.312;25.288;2022-11-09T00:24:00;68.00;;;33.97;;
50393;SDS011;36308;46.312;25.288;2022-11-09T00:26:25;74.30;;;34.47;;
50393;SDS011;36308;46.312;25.288;2022-11-09T00:28:51;73.13;;;34.75;;
50393;SDS011;36308;46.312;25.288;2022-11-09T00:31:20;77.72;;;37.08;;
50393;SDS011;36308;46.312;25.288;2022-11-09T00:33:51;72.22;;;35.05;;
50393;SDS011;36308;46.312;25.288;2022-11-09T00:36:18;72.35;;;35.50;;
50393;SDS011;36308;46.312;25.288;2022-11-09T00:38:48;72.32;;;36.60;;
50393;SDS011;36308;46.312;25.288;2022-11-09T00:41:15;77.75;;;35.58;;
50393;SDS011;36308;46.312;25.288;2022-11-09T00:43:41;76.10;;;38.28;;
50393;SDS011;36308;46.312;25.288;2022-11-09T00:46:06;66.72;;;34.85;;
50393;SDS011;36308;46.312;25.288;2022-11-09T00:48:32;76.68;;;36.78;;
50393;SDS011;36308;46.312;25.288;2022-11-09T00:50:58;68.35;;;34.90;;
50393;SDS011;36308;46.312;25.288;2022-11-09T00:53:24;59.40;;;31.88;;
50393;SDS011;36308;46.312;25.288;2022-11-09T00:58:30;75.40;;;34.75;;
50393;SDS011;36308;46.312;25.288;2022-11-09T01:00:57;67.85;;;34.35;;
50393;SDS011;36308;46.312;25.288;2022-11-09T01:03:25;66.10;;;33.70;;
50393;SDS011;36308;46.312;25.288;2022-11-09T01:05:51;60.65;;;32.10;;
50393;SDS011;36308;46.312;25.288;2022-11-09T01:08:17;60.75;;;31.10;;
50393;SDS011;36308;46.312;25.288;2022-11-09T01:10:44;63.58;;;31.90;;
50393;SDS011;36308;46.312;25.288;2022-11-09T01:13:12;72.60;;;33.45;;
50393;SDS011;36308;46.312;25.288;2022-11-09T01:15:49;61.90;;;31.23;;
50393;SDS011;36308;46.312;25.288;2022-11-09T01:18:18;53.35;;;32.38;;
50393;SDS011;36308;46.312;25.288;2022-11-09T01:20:45;57.70;;;29.83;;
50393;SDS011;36308;46.312;25.288;2022-11-09T01:23:11;48.05;;;28.95;;
50393;SDS011;36308;46.312;25.288;2022-11-09T01:25:38;48.83;;;27.35;;
50393;SDS011;36308;46.312;25.288;2022-11-09T01:28:04;51.33;;;27.27;;
50393;SDS011;36308;46.312;25.288;2022-11-09T01:30:34;53.05;;;27.83;;
50393;SDS011;36308;46.312;25.288;2022-11-09T01:33:02;40.85;;;23.23;;
50393;SDS011;36308;46.312;25.288;2022-11-09T01:35:28;33.42;;;20.58;;
50393;SDS011;36308;46.312;25.288;2022-11-09T01:37:56;26.02;;;17.25;;
50393;SDS011;36308;46.312;25.288;2022-11-09T01:40:21;26.98;;;16.35;;
50393;SDS011;36308;46.312;25.288;2022-11-09T01:42:47;24.02;;;15.93;;
50393;SDS011;36308;46.312;25.288;2022-11-09T01:45:28;22.42;;;15.05;;
50393;SDS011;36308;46.312;25.288;2022-11-09T01:50:37;24.33;;;14.77;;
50393;SDS011;36308;46.312;25.288;2022-11-09T01:53:21;24.00;;;14.93;;
50393;SDS011;36308;46.312;25.288;2022-11-09T01:55:51;27.13;;;15.68;;
50393;SDS011;36308;46.312;25.288;2022-11-09T01:58:22;22.67;;;15.10;;
50393;SDS011;36308;46.312;25.288;2022-11-09T02:00:51;24.05;;;15.27;;
50393;SDS011;36308;46.312;25.288;2022-11-09T02:05:51;25.48;;;16.30;;
50393;SDS011;36308;46.312;25.288;2022-11-09T02:08:17;23.83;;;16.40;;
50393;SDS011;36308;46.312;25.288;2022-11-09T02:13:20;21.30;;;13.18;;
50393;SDS011;36308;46.312;25.288;2022-11-09T02:15:48;18.63;;;13.27;;
50393;SDS011;36308;46.312;25.288;2022-11-09T02:18:15;17.00;;;12.55;;
50393;SDS011;36308;46.312;25.288;2022-11-09T02:20:49;18.05;;;12.32;;
50393;SDS011;36308;46.312;25.288;2022-11-09T02:23:18;17.20;;;12.43;;
50393;SDS011;36308;46.312;25.288;2022-11-09T02:25:48;18.25;;;12.82;;
50393;SDS011;36308;46.312;25.288;2022-11-09T02:28:30;19.40;;;12.18;;
50393;SDS011;36308;46.312;25.288;2022-11-09T02:30:56;18.58;;;12.60;;
50393;SDS011;36308;46.312;25.288;2022-11-09T02:33:22;18.65;;;13.85;;
50393;SDS011;36308;46.312;25.288;2022-11-09T02:35:47;19.17;;;12.88;;
50393;SDS011;36308;46.312;25.288;2022-11-09T02:38:13;18.98;;;12.82;;
50393;SDS011;36308;46.312;25.288;2022-11-09T02:40:39;17.42;;;12.15;;
50393;SDS011;36308;46.312;25.288;2022-11-09T02:43:08;17.20;;;11.30;;
50393;SDS011;36308;46.312;25.288;2022-11-09T02:45:36;16.98;;;11.85;;
50393;SDS011;36308;46.312;25.288;2022-11-09T02:48:01;16.02;;;11.68;;
50393;SDS011;36308;46.312;25.288;2022-11-09T02:50:27;18.35;;;12.27;;
50393;SDS011;36308;46.312;25.288;2022-11-09T02:52:52;17.40;;;11.68;;
50393;SDS011;36308;46.312;25.288;2022-11-09T02:55:18;15.98;;;11.27;;
50393;SDS011;36308;46.312;25.288;2022-11-09T02:57:43;18.45;;;11.80;;
50393;SDS011;36308;46.312;25.288;2022-11-09T03:00:09;18.00;;;10.75;;
50393;SDS011;36308;46.312;25.288;2022-11-09T03:02:35;15.20;;;10.05;;
50393;SDS011;36308;46.312;25.288;2022-11-09T03:05:01;15.73;;;11.10;;
50393;SDS011;36308;46.312;25.288;2022-11-09T03:07:27;13.65;;;9.82;;
50393;SDS011;36308;46.312;25.288;2022-11-09T03:09:53;14.40;;;10.45;;
50393;SDS011;36308;46.312;25.288;2022-11-09T03:12:18;14.70;;;10.32;;
50393;SDS011;36308;46.312;25.288;2022-11-09T03:14:53;14.98;;;10.82;;
50393;SDS011;36308;46.312;25.288;2022-11-09T03:17:19;12.65;;;8.82;;
50393;SDS011;36308;46.312;25.288;2022-11-09T03:19:44;12.18;;;9.35;;
50393;SDS011;36308;46.312;25.288;2022-11-09T03:22:10;12.98;;;8.75;;
50393;SDS011;36308;46.312;25.288;2022-11-09T03:24:35;11.45;;;8.18;;
50393;SDS011;36308;46.312;25.288;2022-11-09T03:27:01;12.38;;;9.05;;
50393;SDS011;36308;46.312;25.288;2022-11-09T03:29:26;11.18;;;7.95;;
50393;SDS011;36308;46.312;25.288;2022-11-09T03:31:51;11.50;;;8.80;;
50393;SDS011;36308;46.312;25.288;2022-11-09T03:34:17;12.82;;;7.82;;
50393;SDS011;36308;46.312;25.288;2022-11-09T03:36:42;12.35;;;9.40;;
50393;SDS011;36308;46.312;25.288;2022-11-09T03:39:08;12.15;;;8.27;;
50393;SDS011;36308;46.312;25.288;2022-11-09T03:41:33;12.27;;;8.50;;
50393;SDS011;36308;46.312;25.288;2022-11-09T03:43:59;11.85;;;8.52;;
50393;SDS011;36308;46.312;25.288;2022-11-09T03:46:24;12.38;;;8.63;;
50393;SDS011;36308;46.312;25.288;2022-11-09T03:48:50;11.38;;;7.85;;
50393;SDS011;36308;46.312;25.288;2022-11-09T03:51:15;13.48;;;9.40;;
50393;SDS011;36308;46.312;25.288;2022-11-09T03:53:40;14.70;;;9.90;;
50393;SDS011;36308;46.312;25.288;2022-11-09T03:56:06;17.60;;;12.10;;
50393;SDS011;36308;46.312;25.288;2022-11-09T03:58:31;15.88;;;12.02;;
50393;SDS011;36308;46.312;25.288;2022-11-09T04:00:57;17.83;;;11.98;;
50393;SDS011;36308;46.312;25.288;2022-11-09T04:03:22;15.95;;;9.98;;
50393;SDS011;36308;46.312;25.288;2022-11-09T04:05:48;14.05;;;9.82;;
50393;SDS011;36308;46.312;25.288;2022-11-09T04:08:13;14.27;;;10.63;;
50393;SDS011;36308;46.312;25.288;2022-11-09T04:10:38;14.05;;;10.93;;
50393;SDS011;36308;46.312;25.288;2022-11-09T04:13:04;15.50;;;10.20;;
50393;SDS011;36308;46.312;25.288;2022-11-09T04:15:29;13.40;;;8.88;;
50393;SDS011;36308;46.312;25.288;2022-11-09T04:17:55;13.23;;;9.02;;
50393;SDS011;36308;46.312;25.288;2022-11-09T04:20:25;13.63;;;8.23;;
50393;SDS011;36308;46.312;25.288;2022-11-09T04:22:56;12.07;;;8.20;;
50393;SDS011;36308;46.312;25.288;2022-11-09T04:25:24;15.25;;;9.07;;
50393;SDS011;36308;46.312;25.288;2022-11-09T04:27:56;13.73;;;8.95;;
50393;SDS011;36308;46.312;25.288;2022-11-09T04:30:23;14.30;;;9.63;;
50393;SDS011;36308;46.312;25.288;2022-11-09T04:32:52;24.80;;;13.05;;
50393;SDS011;36308;46.312;25.288;2022-11-09T04:35:18;22.08;;;12.00;;
50393;SDS011;36308;46.312;25.288;2022-11-09T04:37:43;13.70;;;8.07;;
50393;SDS011;36308;46.312;25.288;2022-11-09T04:42:42;15.40;;;8.73;;
50393;SDS011;36308;46.312;25.288;2022-11-09T04:45:07;13.25;;;8.35;;
50393;SDS011;36308;46.312;25.288;2022-11-09T04:47:33;12.52;;;8.15;;
50393;SDS011;36308;46.312;25.288;2022-11-09T04:49:58;12.40;;;7.50;;
50393;SDS011;36308;46.312;25.288;2022-11-09T04:52:24;13.57;;;8.27;;
50393;SDS011;36308;46.312;25.288;2022-11-09T04:54:49;13.98;;;8.68;;
50393;SDS011;36308;46.312;25.288;2022-11-09T04:57:14;13.98;;;8.90;;
50393;SDS011;36308;46.312;25.288;2022-11-09T04:59:40;16.92;;;10.43;;
50393;SDS011;36308;46.312;25.288;2022-11-09T05:02:05;16.70;;;10.25;;
50393;SDS011;36308;46.312;25.288;2022-11-09T05:04:30;21.05;;;12.85;;
50393;SDS011;36308;46.312;25.288;2022-11-09T05:06:56;19.38;;;12.20;;
50393;SDS011;36308;46.312;25.288;2022-11-09T05:09:21;14.07;;;9.27;;
50393;SDS011;36308;46.312;25.288;2022-11-09T05:11:47;15.65;;;9.77;;
50393;SDS011;36308;46.312;25.288;2022-11-09T05:14:12;16.73;;;10.32;;
50393;SDS011;36308;46.312;25.288;2022-11-09T05:16:37;18.83;;;10.10;;
50393;SDS011;36308;46.312;25.288;2022-11-09T05:19:03;18.13;;;9.70;;
50393;SDS011;36308;46.312;25.288;2022-11-09T05:21:28;15.48;;;9.77;;
50393;SDS011;36308;46.312;25.288;2022-11-09T05:23:54;21.65;;;14.60;;
50393;SDS011;36308;46.312;25.288;2022-11-09T05:26:29;21.00;;;13.98;;
50393;SDS011;36308;46.312;25.288;2022-11-09T05:29:00;18.38;;;11.57;;
50393;SDS011;36308;46.312;25.288;2022-11-09T05:31:27;16.38;;;10.25;;
50393;SDS011;36308;46.312;25.288;2022-11-09T05:33:53;19.08;;;10.75;;
50393;SDS011;36308;46.312;25.288;2022-11-09T05:36:19;17.58;;;11.02;;
50393;SDS011;36308;46.312;25.288;2022-11-09T05:38:45;22.73;;;13.25;;
50393;SDS011;36308;46.312;25.288;2022-11-09T05:41:11;27.75;;;15.35;;
50393;SDS011;36308;46.312;25.288;2022-11-09T05:43:37;29.60;;;16.77;;
50393;SDS011;36308;46.312;25.288;2022-11-09T05:46:02;26.00;;;14.57;;
50393;SDS011;36308;46.312;25.288;2022-11-09T05:48:28;22.70;;;13.73;;
50393;SDS011;36308;46.312;25.288;2022-11-09T05:50:53;21.50;;;11.82;;
50393;SDS011;36308;46.312;25.288;2022-11-09T05:53:19;24.27;;;15.75;;
50393;SDS011;36308;46.312;25.288;2022-11-09T05:55:44;23.00;;;13.55;;
50393;SDS011;36308;46.312;25.288;2022-11-09T05:58:09;25.92;;;16.77;;
50393;SDS011;36308;46.312;25.288;2022-11-09T06:00:35;23.25;;;14.90;;
50393;SDS011;36308;46.312;25.288;2022-11-09T06:03:01;26.52;;;17.05;;
50393;SDS011;36308;46.312;25.288;2022-11-09T06:05:28;31.33;;;20.55;;
50393;SDS011;36308;46.312;25.288;2022-11-09T06:07:53;33.28;;;22.77;;
50393;SDS011;36308;46.312;25.288;2022-11-09T06:10:18;35.10;;;23.63;;
50393;SDS011;36308;46.312;25.288;2022-11-09T06:12:46;33.60;;;21.85;;
50393;SDS011;36308;46.312;25.288;2022-11-09T06:15:14;36.00;;;22.83;;
50393;SDS011;36308;46.312;25.288;2022-11-09T06:17:40;31.42;;;20.67;;
50393;SDS011;36308;46.312;25.288;2022-11-09T06:20:05;37.42;;;22.70;;
50393;SDS011;36308;46.312;25.288;2022-11-09T06:22:31;38.35;;;21.88;;
50393;SDS011;36308;46.312;25.288;2022-11-09T06:24:56;40.38;;;22.95;;
50393;SDS011;36308;46.312;25.288;2022-11-09T06:27:22;30.45;;;17.23;;
50393;SDS011;36308;46.312;25.288;2022-11-09T06:29:47;35.78;;;23.73;;
50393;SDS011;36308;46.312;25.288;2022-11-09T06:32:12;31.00;;;20.83;;
50393;SDS011;36308;46.312;25.288;2022-11-09T06:34:38;31.73;;;19.77;;
50393;SDS011;36308;46.312;25.288;2022-11-09T06:37:03;25.30;;;13.65;;
50393;SDS011;36308;46.312;25.288;2022-11-09T06:39:29;18.90;;;11.60;;
50393;SDS011;36308;46.312;25.288;2022-11-09T06:41:54;23.00;;;12.73;;
50393;SDS011;36308;46.312;25.288;2022-11-09T06:44:20;20.67;;;11.65;;
50393;SDS011;36308;46.312;25.288;2022-11-09T06:46:46;23.75;;;12.60;;
50393;SDS011;36308;46.312;25.288;2022-11-09T06:49:11;30.45;;;15.38;;
50393;SDS011;36308;46.312;25.288;2022-11-09T06:51:36;47.85;;;19.77;;
50393;SDS011;36308;46.312;25.288;2022-11-09T06:54:02;40.47;;;18.20;;
50393;SDS011;36308;46.312;25.288;2022-11-09T06:56:27;28.45;;;17.73;;
50393;SDS011;36308;46.312;25.288;2022-11-09T06:58:53;27.23;;;18.35;;
50393;SDS011;36308;46.312;25.288;2022-11-09T07:01:18;28.45;;;16.05;;
50393;SDS011;36308;46.312;25.288;2022-11-09T07:03:47;29.52;;;17.48;;
50393;SDS011;36308;46.312;25.288;2022-11-09T07:06:12;26.02;;;16.63;;
50393;SDS011;36308;46.312;25.288;2022-11-09T07:08:38;27.90;;;16.75;;
50393;SDS011;36308;46.312;25.288;2022-11-09T07:13:31;31.98;;;18.95;;
50393;SDS011;36308;46.312;25.288;2022-11-09T07:15:56;30.30;;;18.90;;
50393;SDS011;36308;46.312;25.288;2022-11-09T07:18:22;32.90;;;18.77;;
50393;SDS011;36308;46.312;25.288;2022-11-09T07:20:47;27.90;;;18.05;;
50393;SDS011;36308;46.312;25.288;2022-11-09T07:23:13;29.95;;;17.05;;
50393;SDS011;36308;46.312;25.288;2022-11-09T07:25:39;28.23;;;16.98;;
50393;SDS011;36308;46.312;25.288;2022-11-09T07:28:05;28.02;;;18.45;;
50393;SDS011;36308;46.312;25.288;2022-11-09T07:30:32;30.05;;;17.70;;
50393;SDS011;36308;46.312;25.288;2022-11-09T07:32:58;27.92;;;17.90;;
50393;SDS011;36308;46.312;25.288;2022-11-09T07:35:24;32.00;;;18.63;;
50393;SDS011;36308;46.312;25.288;2022-11-09T07:37:50;28.02;;;17.58;;
50393;SDS011;36308;46.312;25.288;2022-11-09T07:40:16;23.65;;;15.10;;
50393;SDS011;36308;46.312;25.288;2022-11-09T07:42:41;26.88;;;15.48;;
50393;SDS011;36308;46.312;25.288;2022-11-09T07:45:07;28.23;;;15.57;;
50393;SDS011;36308;46.312;25.288;2022-11-09T07:47:32;30.65;;;17.48;;
50393;SDS011;36308;46.312;25.288;2022-11-09T07:49:58;27.23;;;17.25;;
50393;SDS011;36308;46.312;25.288;2022-11-09T07:52:23;24.58;;;15.38;;
50393;SDS011;36308;46.312;25.288;2022-11-09T07:54:48;26.23;;;14.85;;
50393;SDS011;36308;46.312;25.288;2022-11-09T07:57:14;24.63;;;15.25;;
50393;SDS011;36308;46.312;25.288;2022-11-09T07:59:39;24.55;;;15.00;;
50393;SDS011;36308;46.312;25.288;2022-11-09T08:02:05;22.02;;;14.32;;
50393;SDS011;36308;46.312;25.288;2022-11-09T08:04:30;22.33;;;15.82;;
50393;SDS011;36308;46.312;25.288;2022-11-09T08:06:55;23.65;;;14.68;;
50393;SDS011;36308;46.312;25.288;2022-11-09T08:09:21;22.35;;;15.23;;
50393;SDS011;36308;46.312;25.288;2022-11-09T08:11:46;28.52;;;16.42;;
50393;SDS011;36308;46.312;25.288;2022-11-09T08:14:12;23.00;;;15.70;;
50393;SDS011;36308;46.312;25.288;2022-11-09T08:16:37;24.63;;;16.15;;
50393;SDS011;36308;46.312;25.288;2022-11-09T08:19:03;31.42;;;16.67;;
50393;SDS011;36308;46.312;25.288;2022-11-09T08:21:29;22.05;;;15.23;;
50393;SDS011;36308;46.312;25.288;2022-11-09T08:23:54;28.45;;;17.63;;
50393;SDS011;36308;46.312;25.288;2022-11-09T08:26:20;25.95;;;17.48;;
50393;SDS011;36308;46.312;25.288;2022-11-09T08:28:45;30.20;;;18.40;;
50393;SDS011;36308;46.312;25.288;2022-11-09T08:31:10;23.70;;;16.38;;
50393;SDS011;36308;46.312;25.288;2022-11-09T08:33:37;28.70;;;19.67;;
50393;SDS011;36308;46.312;25.288;2022-11-09T08:36:11;31.60;;;24.17;;
50393;SDS011;36308;46.312;25.288;2022-11-09T08:38:38;32.53;;;18.42;;
50393;SDS011;36308;46.312;25.288;2022-11-09T08:41:04;22.58;;;15.02;;
50393;SDS011;36308;46.312;25.288;2022-11-09T08:43:29;23.77;;;16.58;;
50393;SDS011;36308;46.312;25.288;2022-11-09T08:45:55;21.05;;;14.25;;
50393;SDS011;36308;46.312;25.288;2022-11-09T08:48:20;18.20;;;13.32;;
50393;SDS011;36308;46.312;25.288;2022-11-09T08:50:50;16.10;;;11.95;;
50393;SDS011;36308;46.312;25.288;2022-11-09T08:53:17;17.58;;;12.70;;
50393;SDS011;36308;46.312;25.288;2022-11-09T08:55:42;18.48;;;12.45;;
50393;SDS011;36308;46.312;25.288;2022-11-09T08:58:08;20.23;;;12.70;;
50393;SDS011;36308;46.312;25.288;2022-11-09T09:00:34;18.65;;;12.23;;
50393;SDS011;36308;46.312;25.288;2022-11-09T09:03:03;17.70;;;11.80;;
50393;SDS011;36308;46.312;25.288;2022-11-09T09:05:29;17.58;;;12.45;;
50393;SDS011;36308;46.312;25.288;2022-11-09T09:07:55;18.77;;;11.23;;
50393;SDS011;36308;46.312;25.288;2022-11-09T09:10:22;19.45;;;13.18;;
50393;SDS011;36308;46.312;25.288;2022-11-09T09:12:47;13.68;;;9.65;;
50393;SDS011;36308;46.312;25.288;2022-11-09T09:15:13;15.98;;;9.93;;
50393;SDS011;36308;46.312;25.288;2022-11-09T09:17:38;13.07;;;9.57;;
50393;SDS011;36308;46.312;25.288;2022-11-09T09:20:04;14.48;;;9.90;;
50393;SDS011;36308;46.312;25.288;2022-11-09T09:22:29;14.85;;;11.10;;
50393;SDS011;36308;46.312;25.288;2022-11-09T09:24:56;14.98;;;10.05;;
50393;SDS011;36308;46.312;25.288;2022-11-09T09:27:21;17.25;;;10.88;;
50393;SDS011;36308;46.312;25.288;2022-11-09T09:29:47;15.27;;;10.40;;
50393;SDS011;36308;46.312;25.288;2022-11-09T09:32:13;12.40;;;8.80;;
50393;SDS011;36308;46.312;25.288;2022-11-09T09:34:38;13.70;;;9.85;;
50393;SDS011;36308;46.312;25.288;2022-11-09T09:37:04;14.48;;;9.50;;
50393;SDS011;36308;46.312;25.288;2022-11-09T09:39:29;14.40;;;9.60;;
50393;SDS011;36308;46.312;25.288;2022-11-09T09:41:55;13.95;;;9.48;;
50393;SDS011;36308;46.312;25.288;2022-11-09T09:44:28;13.35;;;9.07;;
50393;SDS011;36308;46.312;25.288;2022-11-09T09:47:18;12.13;;;8.60;;
50393;SDS011;36308;46.312;25.288;2022-11-09T09:49:52;12.90;;;8.95;;
50393;SDS011;36308;46.312;25.288;2022-11-09T09:52:39;14.57;;;10.40;;
50393;SDS011;36308;46.312;25.288;2022-11-09T09:57:52;15.27;;;10.23;;
50393;SDS011;36308;46.312;25.288;2022-11-09T10:00:23;14.65;;;8.85;;
50393;SDS011;36308;46.312;25.288;2022-11-09T10:02:51;13.77;;;9.32;;
50393;SDS011;36308;46.312;25.288;2022-11-09T10:05:18;12.73;;;8.63;;
50393;SDS011;36308;46.312;25.288;2022-11-09T10:21:21;12.57;;;8.88;;
50393;SDS011;36308;46.312;25.288;2022-11-09T10:24:05;29.30;;;19.15;;
50393;SDS011;36308;46.312;25.288;2022-11-09T10:29:40;18.15;;;12.55;;
50393;SDS011;36308;46.312;25.288;2022-11-09T10:32:18;13.27;;;9.55;;
50393;SDS011;36308;46.312;25.288;2022-11-09T10:34:54;15.80;;;9.63;;
50393;SDS011;36308;46.312;25.288;2022-11-09T10:37:47;20.45;;;16.17;;
50393;SDS011;36308;46.312;25.288;2022-11-09T10:40:24;18.05;;;11.88;;
50393;SDS011;36308;46.312;25.288;2022-11-09T10:43:01;15.02;;;11.07;;
50393;SDS011;36308;46.312;25.288;2022-11-09T10:45:34;14.77;;;10.05;;
50393;SDS011;36308;46.312;25.288;2022-11-09T10:48:02;12.45;;;9.23;;
50393;SDS011;36308;46.312;25.288;2022-11-09T10:50:39;12.15;;;9.05;;
50393;SDS011;36308;46.312;25.288;2022-11-09T10:55:47;13.00;;;8.70;;
50393;SDS011;36308;46.312;25.288;2022-11-09T10:58:31;12.60;;;9.07;;
50393;SDS011;36308;46.312;25.288;2022-11-09T11:01:12;11.57;;;8.35;;
50393;SDS011;36308;46.312;25.288;2022-11-09T11:03:40;11.00;;;8.45;;
50393;SDS011;36308;46.312;25.288;2022-11-09T11:08:39;11.25;;;7.80;;
50393;SDS011;36308;46.312;25.288;2022-11-09T11:13:47;12.80;;;8.50;;
50393;SDS011;36308;46.312;25.288;2022-11-09T11:16:34;10.07;;;7.82;;
50393;SDS011;36308;46.312;25.288;2022-11-09T11:18:59;12.80;;;7.72;;
50393;SDS011;36308;46.312;25.288;2022-11-09T11:21:26;9.50;;;6.70;;
50393;SDS011;36308;46.312;25.288;2022-11-09T11:24:10;8.80;;;6.78;;
50393;SDS011;36308;46.312;25.288;2022-11-09T11:31:43;10.45;;;6.88;;
50393;SDS011;36308;46.312;25.288;2022-11-09T11:34:12;8.85;;;6.75;;
50393;SDS011;36308;46.312;25.288;2022-11-09T11:55:38;12.32;;;7.28;;
50393;SDS011;36308;46.312;25.288;2022-11-09T12:00:58;9.68;;;6.70;;
50393;SDS011;36308;46.312;25.288;2022-11-09T12:09:17;8.55;;;6.43;;
50393;SDS011;36308;46.312;25.288;2022-11-09T12:14:50;11.35;;;6.90;;
50393;SDS011;36308;46.312;25.288;2022-11-09T12:33:53;12.45;;;6.97;;
50393;SDS011;36308;46.312;25.288;2022-11-09T12:42:57;11.25;;;7.53;;
50393;SDS011;36308;46.312;25.288;2022-11-09T12:47:51;11.35;;;7.03;;
50393;SDS011;36308;46.312;25.288;2022-11-09T12:50:20;10.13;;;7.00;;
50393;SDS011;36308;46.312;25.288;2022-11-09T12:52:48;10.88;;;7.03;;
50393;SDS011;36308;46.312;25.288;2022-11-09T12:55:21;8.75;;;6.53;;
50393;SDS011;36308;46.312;25.288;2022-11-09T12:57:53;9.23;;;6.63;;
50393;SDS011;36308;46.312;25.288;2022-11-09T13:03:00;8.63;;;6.00;;
50393;SDS011;36308;46.312;25.288;2022-11-09T13:05:29;9.18;;;6.60;;
50393;SDS011;36308;46.312;25.288;2022-11-09T13:08:00;11.35;;;6.82;;
50393;SDS011;36308;46.312;25.288;2022-11-09T13:10:28;8.70;;;6.35;;
50393;SDS011;36308;46.312;25.288;2022-11-09T13:15:39;12.30;;;7.15;;
50393;SDS011;36308;46.312;25.288;2022-11-09T13:20:55;11.10;;;6.90;;
50393;SDS011;36308;46.312;25.288;2022-11-09T13:23:41;15.23;;;12.30;;
50393;SDS011;36308;46.312;25.288;2022-11-09T13:26:19;9.77;;;7.50;;
50393;SDS011;36308;46.312;25.288;2022-11-09T13:34:44;14.98;;;9.82;;
50393;SDS011;36308;46.312;25.288;2022-11-09T13:42:56;24.60;;;14.85;;
50393;SDS011;36308;46.312;25.288;2022-11-09T13:47:53;12.43;;;8.27;;
50393;SDS011;36308;46.312;25.288;2022-11-09T13:50:22;13.95;;;8.23;;
50393;SDS011;36308;46.312;25.288;2022-11-09T13:52:53;13.02;;;7.03;;
50393;SDS011;36308;46.312;25.288;2022-11-09T13:57:48;12.25;;;7.22;;
50393;SDS011;36308;46.312;25.288;2022-11-09T14:00:17;11.48;;;6.53;;
50393;SDS011;36308;46.312;25.288;2022-11-09T14:03:00;14.93;;;7.60;;
50393;SDS011;36308;46.312;25.288;2022-11-09T14:05:28;9.82;;;7.03;;
50393;SDS011;36308;46.312;25.288;2022-11-09T14:07:59;11.90;;;7.55;;
50393;SDS011;36308;46.312;25.288;2022-11-09T14:21:14;24.83;;;18.27;;
50393;SDS011;36308;46.312;25.288;2022-11-09T14:23:43;29.70;;;19.90;;
50393;SDS011;36308;46.312;25.288;2022-11-09T14:26:09;37.42;;;26.33;;
50393;SDS011;36308;46.312;25.288;2022-11-09T14:28:41;46.03;;;28.27;;
50393;SDS011;36308;46.312;25.288;2022-11-09T14:31:19;49.55;;;30.42;;
50393;SDS011;36308;46.312;25.288;2022-11-09T14:33:56;48.15;;;29.10;;
50393;SDS011;36308;46.312;25.288;2022-11-09T14:36:30;40.88;;;26.88;;
50393;SDS011;36308;46.312;25.288;2022-11-09T14:38:59;27.05;;;18.77;;
50393;SDS011;36308;46.312;25.288;2022-11-09T14:41:27;21.17;;;16.50;;
50393;SDS011;36308;46.312;25.288;2022-11-09T14:43:54;33.67;;;23.77;;
50393;SDS011;36308;46.312;25.288;2022-11-09T14:46:22;33.42;;;22.48;;
50393;SDS011;36308;46.312;25.288;2022-11-09T14:49:08;27.25;;;18.73;;
50393;SDS011;36308;46.312;25.288;2022-11-09T14:51:35;57.95;;;29.50;;
50393;SDS011;36308;46.312;25.288;2022-11-09T14:54:07;74.70;;;35.08;;
50393;SDS011;36308;46.312;25.288;2022-11-09T14:56:36;90.63;;;43.40;;
50393;SDS011;36308;46.312;25.288;2022-11-09T14:59:03;80.30;;;39.78;;
50393;SDS011;36308;46.312;25.288;2022-11-09T15:01:31;65.10;;;33.45;;
50393;SDS011;36308;46.312;25.288;2022-11-09T15:06:48;48.03;;;31.13;;
50393;SDS011;36308;46.312;25.288;2022-11-09T15:09:17;47.85;;;31.35;;
50393;SDS011;36308;46.312;25.288;2022-11-09T15:11:45;37.88;;;26.70;;
50393;SDS011;36308;46.312;25.288;2022-11-09T15:14:20;35.75;;;25.13;;
50393;SDS011;36308;46.312;25.288;2022-11-09T15:16:47;37.67;;;25.80;;
50393;SDS011;36308;46.312;25.288;2022-11-09T15:19:30;35.08;;;25.65;;
50393;SDS011;36308;46.312;25.288;2022-11-09T15:21:58;34.20;;;23.25;;
50393;SDS011;36308;46.312;25.288;2022-11-09T15:24:25;26.15;;;20.95;;
50393;SDS011;36308;46.312;25.288;2022-11-09T15:26:52;25.70;;;18.30;;
50393;SDS011;36308;46.312;25.288;2022-11-09T15:37:24;23.42;;;15.23;;
50393;SDS011;36308;46.312;25.288;2022-11-09T15:39:53;21.75;;;14.15;;
50393;SDS011;36308;46.312;25.288;2022-11-09T15:42:19;24.45;;;17.50;;
50393;SDS011;36308;46.312;25.288;2022-11-09T15:44:45;25.10;;;18.05;;
50393;SDS011;36308;46.312;25.288;2022-11-09T15:47:18;29.27;;;21.08;;
50393;SDS011;36308;46.312;25.288;2022-11-09T15:49:46;29.25;;;19.60;;
50393;SDS011;36308;46.312;25.288;2022-11-09T15:52:12;30.67;;;20.77;;
50393;SDS011;36308;46.312;25.288;2022-11-09T15:54:37;34.65;;;21.35;;
50393;SDS011;36308;46.312;25.288;2022-11-09T15:57:04;29.33;;;17.70;;
50393;SDS011;36308;46.312;25.288;2022-11-09T15:59:29;55.60;;;32.97;;
50393;SDS011;36308;46.312;25.288;2022-11-09T16:01:55;91.80;;;51.25;;
50393;SDS011;36308;46.312;25.288;2022-11-09T16:04:20;99.43;;;52.58;;
50393;SDS011;36308;46.312;25.288;2022-11-09T16:06:45;90.00;;;49.63;;
50393;SDS011;36308;46.312;25.288;2022-11-09T16:09:11;96.32;;;51.15;;
50393;SDS011;36308;46.312;25.288;2022-11-09T16:11:36;92.82;;;53.90;;
50393;SDS011;36308;46.312;25.288;2022-11-09T16:14:02;96.57;;;53.50;;
50393;SDS011;36308;46.312;25.288;2022-11-09T16:16:28;87.38;;;50.63;;
50393;SDS011;36308;46.312;25.288;2022-11-09T16:18:54;93.70;;;54.70;;
50393;SDS011;36308;46.312;25.288;2022-11-09T16:21:20;80.07;;;51.38;;
50393;SDS011;36308;46.312;25.288;2022-11-09T16:23:46;84.53;;;53.42;;
50393;SDS011;36308;46.312;25.288;2022-11-09T16:26:12;93.00;;;55.53;;
50393;SDS011;36308;46.312;25.288;2022-11-09T16:28:39;89.75;;;56.72;;
50393;SDS011;36308;46.312;25.288;2022-11-09T16:31:05;106.55;;;60.83;;
50393;SDS011;36308;46.312;25.288;2022-11-09T16:33:31;117.57;;;58.72;;
50393;SDS011;36308;46.312;25.288;2022-11-09T16:35:58;115.28;;;57.55;;
50393;SDS011;36308;46.312;25.288;2022-11-09T16:38:27;119.18;;;57.63;;
50393;SDS011;36308;46.312;25.288;2022-11-09T16:40:54;138.05;;;62.05;;
50393;SDS011;36308;46.312;25.288;2022-11-09T16:43:20;170.27;;;71.95;;
50393;SDS011;36308;46.312;25.288;2022-11-09T16:45:46;156.65;;;72.20;;
50393;SDS011;36308;46.312;25.288;2022-11-09T16:48:13;134.55;;;73.78;;